CheckWX is a tool to help pilots better visualize weather data.  It is not intended as a substitute for an official pre-flight weather briefing.

12:18:49 UTC

VGHS METAR
Dhaka
Dhaka, Bangladesh
Current

49 mins ago

VGHS 051130Z 15012KT 4000 HZ SCT015 BKN100 31/22 Q1008 NOSIG
Observed
Apr-5 @ 11:30 UTC
Wind
  • 150° at 12 KTS
Visibility
4007 meters
Flight Rules
IFR
Conditions
Haze
Cloud Levels
  • Scattered at 1,500' AGL
  • Broken at 10,000' AGL
Temperature
31°C / 88°F
Dewpoint
22°C / 72°F
Humidity
59%
Altimeter
29.76" Hg
Pressure
1007.92 hPa
Previous

1 hour ago

VGHS 051100Z 18010KT 4000 HZ SCT015 BKN100 33/25 Q1009 NOSIG
Observed
Apr-5 @ 11:00 UTC
Wind
  • 180° at 10 KTS
Visibility
4007 meters
Flight Rules
IFR
Conditions
Haze
Cloud Levels
  • Scattered at 1,500' AGL
  • Broken at 10,000' AGL
Temperature
33°C / 91°F
Dewpoint
25°C / 77°F
Humidity
63%
Altimeter
29.79" Hg
Pressure
1008.92 hPa
Previous

2 hours ago

VGHS 051030Z 09008KT 4000 HZ SCT015 BKN100 33/25 Q1007 NOSIG
Observed
Apr-5 @ 10:30 UTC
Wind
  • 090° at 8 KTS
Visibility
4007 meters
Flight Rules
IFR
Conditions
Haze
Cloud Levels
  • Scattered at 1,500' AGL
  • Broken at 10,000' AGL
Temperature
33°C / 91°F
Dewpoint
25°C / 77°F
Humidity
63%
Altimeter
29.73" Hg
Pressure
1006.92 hPa